Time;durP1;ratioP1;P1;durP2;ratioP2;P2;SDS_P1;SDS_P2;PMS_P1;PMS_P2;Temp;Humidity;BMP_temperature;BMP_pressure;BME280_temperature;BME280_humidity;BME280_pressure;Samples;Min_cycle;Max_cycle;Signal;HPM_P1;HPM_P2
2022/09/29 00:01:20;;;;;;;26.45;18.00;;;;;;;5.20;100.00;99976.66;5044497;28;20483;-71
2022/09/29 00:03:45;;;;;;;25.70;18.83;;;;;;;5.17;100.00;99984.47;5048988;28;20029;-71
2022/09/29 00:06:13;;;;;;;25.60;18.33;;;;;;;5.18;100.00;99988.75;5045350;28;20088;-71
2022/09/29 00:08:39;;;;;;;25.50;18.38;;;;;;;5.13;100.00;99977.59;5046847;28;20027;-71
2022/09/29 00:11:09;;;;;;;27.98;19.10;;;;;;;5.15;100.00;99983.63;5047794;28;20070;-71
2022/09/29 00:13:35;;;;;;;25.42;18.33;;;;;;;5.10;100.00;99982.81;5050265;28;20025;-70
2022/09/29 00:16:01;;;;;;;27.20;19.98;;;;;;;5.06;100.00;99983.75;5052069;28;20021;-71
2022/09/29 00:18:28;;;;;;;26.23;18.27;;;;;;;4.99;100.00;99985.56;5053586;28;20064;-71
2022/09/29 00:20:56;;;;;;;28.27;18.05;;;;;;;4.97;100.00;99986.47;5049193;28;20515;-71
2022/09/29 00:23:23;;;;;;;25.70;18.42;;;;;;;4.95;100.00;99975.31;5051559;28;20025;-71
2022/09/29 00:25:58;;;;;;;24.65;18.05;;;;;;;4.93;100.00;99983.91;5052490;28;20151;-71
2022/09/29 00:28:23;;;;;;;24.15;17.67;;;;;;;4.89;100.00;99987.44;5045682;28;20073;-71
2022/09/29 00:30:51;;;;;;;24.70;17.58;;;;;;;4.87;100.00;99983.16;5041743;28;20418;-71
2022/09/29 00:33:16;;;;;;;24.45;17.83;;;;;;;4.82;100.00;99974.63;5051729;28;20060;-71
2022/09/29 00:35:42;;;;;;;25.10;17.90;;;;;;;4.82;100.00;99978.06;5052198;28;20133;-71
2022/09/29 00:38:07;;;;;;;26.15;18.20;;;;;;;4.80;100.00;99977.22;5047976;28;20052;-71
2022/09/29 00:40:33;;;;;;;26.00;18.17;;;;;;;4.77;100.00;99973.81;5052281;28;20041;-71
2022/09/29 00:42:59;;;;;;;30.55;18.50;;;;;;;4.75;100.00;99975.59;5052758;28;20033;-71
2022/09/29 00:45:25;;;;;;;24.63;17.55;;;;;;;4.73;100.00;99979.91;5050757;28;20037;-72
2022/09/29 00:48:01;;;;;;;25.65;18.35;;;;;;;4.68;100.00;99980.84;5047346;28;20101;-71
2022/09/29 00:50:39;;;;;;;28.27;18.52;;;;;;;4.66;100.00;99981.72;5045919;28;20079;-71
2022/09/29 00:53:10;;;;;;;22.48;17.58;;;;;;;4.61;100.00;99986.97;5048854;28;20452;-71
2022/09/29 00:55:42;;;;;;;24.98;17.88;;;;;;;4.58;100.00;99979.25;5052096;28;20044;-71
2022/09/29 00:58:24;;;;;;;25.55;18.08;;;;;;;4.57;100.00;99987.84;5051082;28;20518;-71
2022/09/29 01:00:50;;;;;;;23.33;17.23;;;;;;;4.51;100.00;99979.31;5048629;28;20447;-71
2022/09/29 01:03:19;;;;;;;24.00;17.90;;;;;;;4.54;100.00;99982.72;5043560;28;20101;-71
2022/09/29 01:06:00;;;;;;;23.98;17.90;;;;;;;4.49;100.00;99968.19;5050741;28;20032;-71
2022/09/29 01:08:52;;;;;;;28.20;18.35;;;;;;;4.51;100.00;99971.59;5050129;28;20028;-71
2022/09/29 01:11:21;;;;;;;23.35;17.17;;;;;;;4.48;100.00;99982.81;5041801;28;20430;-71
2022/09/29 01:13:47;;;;;;;23.98;18.17;;;;;;;4.36;100.00;99957.16;5051188;28;20060;-71
2022/09/29 01:16:12;;;;;;;27.58;18.67;;;;;;;4.42;100.00;99973.41;5046506;28;20126;-71
2022/09/29 01:18:38;;;;;;;24.58;18.65;;;;;;;4.43;100.00;99969.97;5049498;28;20603;-71
2022/09/29 01:21:23;;;;;;;25.20;18.00;;;;;;;4.41;100.00;99976.00;5051131;28;20499;-71
2022/09/29 01:24:27;;;;;;;25.45;17.52;;;;;;;4.38;100.00;99971.75;5043757;28;20036;-71
2022/09/29 01:27:03;;;;;;;24.13;18.40;;;;;;;4.37;100.00;99982.09;5044526;28;20032;-71
2022/09/29 01:29:34;;;;;;;27.98;18.02;;;;;;;4.35;100.00;99978.66;5044803;28;20288;-71
2022/09/29 01:32:41;;;;;;;26.90;18.05;;;;;;;4.32;100.00;99982.16;5051039;28;20060;-71
2022/09/29 01:35:30;;;;;;;25.58;18.27;;;;;;;4.32;100.00;99981.31;5035288;28;20124;-71
2022/09/29 01:38:18;;;;;;;26.63;18.33;;;;;;;4.30;100.00;99978.72;5049145;28;20495;-72
2022/09/29 01:40:57;;;;;;;24.52;17.83;;;;;;;4.32;100.00;99983.88;5042901;28;20051;-71
2022/09/29 01:43:27;;;;;;;27.83;19.05;;;;;;;4.29;100.00;99986.50;5050127;28;20358;-71
2022/09/29 01:46:03;;;;;;;27.92;17.50;;;;;;;4.26;100.00;99981.38;5052458;28;20020;-71
2022/09/29 01:48:35;;;;;;;27.80;19.00;;;;;;;4.25;100.00;99989.97;5038128;28;20381;-71
2022/09/29 01:51:07;;;;;;;29.00;18.70;;;;;;;4.20;100.00;99982.28;5052170;28;20415;-71
2022/09/29 01:53:38;;;;;;;27.80;19.17;;;;;;;4.18;100.00;99987.44;5051684;28;20025;-71
2022/09/29 01:56:08;;;;;;;24.77;18.88;;;;;;;4.16;100.00;99994.38;5047209;28;20282;-71
2022/09/29 01:58:46;;;;;;;24.23;18.30;;;;;;;4.12;100.00;99990.13;5051514;28;20422;-71
2022/09/29 02:01:14;;;;;;;26.05;17.88;;;;;;;4.09;100.00;99984.97;5051548;28;20061;-71
2022/09/29 02:04:03;;;;;;;29.25;19.10;;;;;;;4.08;100.00;99987.56;5045615;28;20055;-71
2022/09/29 02:06:39;;;;;;;23.65;18.13;;;;;;;4.06;100.00;99985.03;5051754;28;20029;-71
2022/09/29 02:09:11;;;;;;;27.77;18.85;;;;;;;4.03;100.00;99989.34;5049211;28;20025;-71
2022/09/29 02:11:40;;;;;;;27.77;19.08;;;;;;;4.06;100.00;99989.31;5051441;28;20032;-71
2022/09/29 02:14:18;;;;;;;27.67;19.67;;;;;;;4.05;100.00;99985.03;5043184;28;20044;-71
2022/09/29 02:17:05;;;;;;;27.30;19.48;;;;;;;4.05;100.00;99992.75;5043168;28;20033;-71
2022/09/29 02:19:38;;;;;;;27.23;19.10;;;;;;;4.01;100.00;99983.34;5047462;28;20025;-71
2022/09/29 02:22:03;;;;;;;27.77;19.45;;;;;;;3.98;100.00;99989.38;5049201;28;20506;-71
2022/09/29 02:24:29;;;;;;;26.63;19.02;;;;;;;3.93;100.00;99984.28;5044169;28;20060;-71
2022/09/29 02:26:55;;;;;;;26.05;18.02;;;;;;;3.92;100.00;99994.59;5048615;28;20477;-71
2022/09/29 02:29:20;;;;;;;26.33;19.38;;;;;;;3.91;100.00;99995.47;5045569;28;20061;-71
2022/09/29 02:31:47;;;;;;;30.17;19.85;;;;;;;3.89;100.00;99992.06;5048503;28;20476;-71
2022/09/29 02:34:16;;;;;;;30.38;19.83;;;;;;;3.87;100.00;99984.34;5049799;28;20098;-71
2022/09/29 02:37:01;;;;;;;25.42;19.73;;;;;;;3.86;100.00;99987.81;5044441;28;20112;-71
2022/09/29 02:39:49;;;;;;;28.17;19.05;;;;;;;3.80;100.00;99985.28;5044716;28;20052;-71
2022/09/29 02:42:28;;;;;;;24.58;18.38;;;;;;;3.78;100.00;99987.00;5050494;28;20037;-71
2022/09/29 02:45:16;;;;;;;28.75;18.63;;;;;;;3.76;100.00;99988.75;5042620;28;20118;-71
2022/09/29 02:48:20;;;;;;;29.75;19.85;;;;;;;3.76;100.00;99993.91;5049944;28;20514;-71
2022/09/29 02:51:01;;;;;;;25.95;19.40;;;;;;;3.73;100.00;99988.78;5043861;28;20404;-71
2022/09/29 02:53:39;;;;;;;29.73;19.98;;;;;;;3.72;100.00;99992.22;5049785;28;20036;-71
2022/09/29 02:56:26;;;;;;;26.98;19.73;;;;;;;3.70;100.00;99992.25;5045112;28;20120;-71
2022/09/29 02:59:16;;;;;;;26.95;19.48;;;;;;;3.69;100.00;99994.81;5047185;28;20033;-71
2022/09/29 03:01:50;;;;;;;27.52;19.52;;;;;;;3.64;100.00;99994.88;5046361;28;20127;-71
2022/09/29 03:04:16;;;;;;;29.58;19.70;;;;;;;3.63;100.00;99988.00;5044706;28;20029;-71
2022/09/29 03:06:41;;;;;;;33.92;18.83;;;;;;;3.61;100.00;99991.47;5050129;28;20038;-70
2022/09/29 03:09:07;;;;;;;28.30;20.17;;;;;;;3.60;100.00;99995.78;5046006;28;20036;-71
2022/09/29 03:11:32;;;;;;;29.05;19.10;;;;;;;3.59;100.00;99995.75;5050273;28;20036;-71
2022/09/29 03:13:57;;;;;;;26.98;19.40;;;;;;;3.56;100.00;99993.22;5049370;28;20033;-71
2022/09/29 03:16:23;;;;;;;29.45;19.20;;;;;;;3.54;100.00;99994.97;5052173;28;20028;-71
2022/09/29 03:18:48;;;;;;;29.08;19.08;;;;;;;3.54;100.00;99997.53;5052739;28;20385;-71
2022/09/29 03:21:13;;;;;;;31.80;19.95;;;;;;;3.51;100.00;99988.09;5044127;28;20112;-71
2022/09/29 03:23:38;;;;;;;24.88;19.08;;;;;;;3.52;100.00;99993.25;5047105;28;20056;-71
2022/09/29 03:26:04;;;;;;;30.20;20.00;;;;;;;3.43;100.00;99983.03;5053544;28;20080;-71
2022/09/29 03:28:29;;;;;;;28.13;20.15;;;;;;;3.48;100.00;99990.72;5051609;28;20028;-71
2022/09/29 03:30:54;;;;;;;28.85;20.00;;;;;;;3.48;100.00;99996.72;5045703;28;20423;-71
2022/09/29 03:33:20;;;;;;;29.40;20.38;;;;;;;3.44;100.00;99989.88;5048913;28;20029;-71
2022/09/29 03:35:45;;;;;;;32.10;20.58;;;;;;;3.40;100.00;99977.91;5051026;28;20024;-71
2022/09/29 03:38:11;;;;;;;32.20;20.83;;;;;;;3.42;100.00;99983.88;5048374;28;20044;-71
2022/09/29 03:40:36;;;;;;;29.17;19.25;;;;;;;3.46;100.00;99987.28;5048000;28;20039;-71
2022/09/29 03:43:01;;;;;;;27.73;20.20;;;;;;;3.45;100.00;99993.31;5047691;28;20385;-71
2022/09/29 03:45:27;;;;;;;31.40;20.10;;;;;;;3.45;100.00;99999.31;5050713;28;20068;-71
2022/09/29 03:47:52;;;;;;;28.70;20.42;;;;;;;3.43;100.00;99997.59;5048150;28;20063;-71
2022/09/29 03:50:17;;;;;;;30.60;21.30;;;;;;;3.42;100.00;99994.19;5043925;28;20032;-71
2022/09/29 03:52:42;;;;;;;30.42;20.77;;;;;;;3.42;100.00;99996.75;5042605;28;20029;-71
2022/09/29 03:55:08;;;;;;;31.92;21.60;;;;;;;3.41;100.00;99992.47;5049815;28;20029;-71
2022/09/29 03:57:33;;;;;;;30.98;20.02;;;;;;;3.37;100.00;99993.38;5051262;28;20025;-71
2022/09/29 03:59:59;;;;;;;33.55;21.58;;;;;;;3.37;100.00;100006.25;5051648;28;20504;-71
2022/09/29 04:02:24;;;;;;;28.70;20.15;;;;;;;3.35;100.00;100005.41;5052018;28;20033;-71
2022/09/29 04:04:49;;;;;;;30.42;21.13;;;;;;;3.31;100.00;100002.88;5049967;28;20028;-70
2022/09/29 04:07:15;;;;;;;29.52;19.95;;;;;;;3.28;100.00;99993.44;5052235;28;20032;-71
2022/09/29 04:09:40;;;;;;;31.35;20.90;;;;;;;3.29;100.00;100001.16;5051829;28;20029;-71
2022/09/29 04:12:06;;;;;;;35.33;21.90;;;;;;;3.27;100.00;100007.19;5054034;28;20039;-71
2022/09/29 04:14:31;;;;;;;33.63;21.48;;;;;;;3.27;100.00;100009.78;5050856;28;20025;-70
2022/09/29 04:16:56;;;;;;;27.75;19.63;;;;;;;3.24;100.00;100010.66;5051421;28;20499;-71
2022/09/29 04:19:21;;;;;;;34.60;20.67;;;;;;;3.25;100.00;100008.91;5051680;28;20033;-71
2022/09/29 04:21:47;;;;;;;32.90;21.25;;;;;;;3.24;100.00;100018.38;5054123;28;20103;-71
2022/09/29 04:24:12;;;;;;;36.15;21.45;;;;;;;3.20;100.00;100019.22;5048316;28;20067;-71
2022/09/29 04:26:38;;;;;;;29.95;20.52;;;;;;;3.16;100.00;100008.97;5065934;28;20025;-71
2022/09/29 04:29:04;;;;;;;32.30;21.10;;;;;;;3.19;100.00;100014.09;5049998;28;20036;-71
2022/09/29 04:31:29;;;;;;;31.52;21.30;;;;;;;3.21;100.00;100020.13;5052242;28;20074;-71
2022/09/29 04:33:55;;;;;;;32.95;21.35;;;;;;;3.13;100.00;100012.41;5052901;28;20025;-71
2022/09/29 04:36:20;;;;;;;33.33;21.42;;;;;;;3.18;100.00;100018.41;5052709;28;20025;-71
2022/09/29 04:38:45;;;;;;;31.02;20.48;;;;;;;3.13;100.00;100019.28;5051494;28;20130;-71
2022/09/29 04:41:10;;;;;;;31.60;20.95;;;;;;;3.13;100.00;100020.16;5052613;28;20045;-71
2022/09/29 04:43:36;;;;;;;30.63;20.17;;;;;;;3.11;100.00;100026.19;5043965;28;20056;-71
2022/09/29 04:46:03;;;;;;;31.33;20.48;;;;;;;3.12;100.00;100027.91;5052221;28;20063;-71
2022/09/29 04:48:28;;;;;;;33.05;21.30;;;;;;;3.11;100.00;100028.78;5049523;28;20393;-71
2022/09/29 04:50:54;;;;;;;32.25;21.95;;;;;;;3.06;100.00;100015.91;5049935;28;20033;-71
2022/09/29 04:53:19;;;;;;;32.80;22.83;;;;;;;3.08;100.00;100024.50;5050703;28;20024;-71
2022/09/29 04:55:44;;;;;;;36.28;21.80;;;;;;;3.09;100.00;100038.22;5050213;28;20079;-71
2022/09/29 04:58:10;;;;;;;38.33;21.67;;;;;;;3.08;100.00;100031.38;5051914;28;20111;-71
2022/09/29 05:00:35;;;;;;;31.48;21.15;;;;;;;3.08;100.00;100033.94;5052689;28;20484;-71
2022/09/29 05:03:00;;;;;;;35.67;22.15;;;;;;;3.07;100.00;100034.78;5044238;28;20040;-71
2022/09/29 05:05:26;;;;;;;34.00;22.83;;;;;;;3.01;100.00;100033.97;5045658;28;20024;-71
2022/09/29 05:07:51;;;;;;;31.42;21.48;;;;;;;3.05;100.00;100038.22;5043871;28;20531;-71
2022/09/29 05:10:17;;;;;;;32.97;21.08;;;;;;;3.06;100.00;100036.50;5034720;28;20080;-71
2022/09/29 05:12:48;;;;;;;35.50;22.83;;;;;;;3.08;100.00;100045.09;5046360;28;20068;-71
2022/09/29 05:15:14;;;;;;;34.20;21.85;;;;;;;3.06;100.00;100054.53;5033793;28;20030;-71
2022/09/29 05:17:39;;;;;;;33.97;22.35;;;;;;;3.03;100.00;100051.97;5041600;28;20110;-71
2022/09/29 05:20:05;;;;;;;33.55;23.38;;;;;;;3.04;100.00;100053.66;5039015;28;20424;-71
2022/09/29 05:22:30;;;;;;;37.40;23.13;;;;;;;3.03;100.00;100057.97;5046103;28;20040;-71
2022/09/29 05:24:55;;;;;;;34.47;22.40;;;;;;;3.02;100.00;100064.00;5047118;28;20032;-71
2022/09/29 05:27:21;;;;;;;37.92;23.92;;;;;;;3.01;100.00;100059.72;5047360;28;20429;-71
2022/09/29 05:29:46;;;;;;;37.13;23.23;;;;;;;2.99;100.00;100064.00;5049115;28;20021;-71
2022/09/29 05:32:12;;;;;;;37.67;23.25;;;;;;;3.03;100.00;100070.00;5051613;28;20100;-71
2022/09/29 05:34:37;;;;;;;37.92;22.95;;;;;;;3.01;100.00;100066.59;5051561;28;20234;-71
2022/09/29 05:37:03;;;;;;;34.92;23.65;;;;;;;2.97;100.00;100065.72;5047632;28;20511;-71
2022/09/29 05:39:33;;;;;;;37.97;23.38;;;;;;;2.97;100.00;100065.72;5041283;28;20056;-71
2022/09/29 05:41:58;;;;;;;42.20;25.27;;;;;;;2.99;100.00;100063.16;5051181;28;20056;-71
2022/09/29 05:44:23;;;;;;;44.50;25.38;;;;;;;3.00;100.00;100070.00;5043308;28;20465;-71
2022/09/29 05:46:48;;;;;;;38.45;25.05;;;;;;;3.02;100.00;100074.28;5050435;28;20036;-70
2022/09/29 05:49:14;;;;;;;42.75;25.30;;;;;;;3.01;100.00;100067.44;5047485;28;20025;-71
2022/09/29 05:51:39;;;;;;;41.38;25.73;;;;;;;3.00;100.00;100076.00;5049714;28;20032;-71
2022/09/29 05:54:04;;;;;;;36.58;24.30;;;;;;;2.99;100.00;100076.88;5048923;28;20052;-71
2022/09/29 05:56:30;;;;;;;41.90;24.73;;;;;;;2.99;100.00;100078.59;5051704;28;20029;-71
2022/09/29 05:58:55;;;;;;;42.33;24.50;;;;;;;3.00;100.00;100073.44;5051080;28;20028;-71
2022/09/29 06:01:23;;;;;;;43.60;26.58;;;;;;;3.04;100.00;100076.84;5049063;28;20028;-71
2022/09/29 06:03:52;;;;;;;41.15;25.08;;;;;;;3.06;100.00;100085.44;5050418;28;20094;-71
2022/09/29 06:06:21;;;;;;;44.45;25.80;;;;;;;3.04;100.00;100076.84;5051737;28;20029;-71
2022/09/29 06:08:48;;;;;;;40.38;25.65;;;;;;;3.07;100.00;100084.56;5046345;28;20025;-71
2022/09/29 06:11:19;;;;;;;44.72;26.10;;;;;;;3.15;100.00;100084.53;5048473;28;20025;-71
2022/09/29 06:13:46;;;;;;;43.45;27.52;;;;;;;3.18;100.00;100092.25;5051125;28;20040;-71
2022/09/29 06:16:13;;;;;;;45.53;28.02;;;;;;;3.20;100.00;100093.09;5048826;28;20017;-71
2022/09/29 06:18:38;;;;;;;45.35;27.48;;;;;;;3.24;100.00;100094.81;5050665;28;20045;-71
2022/09/29 06:21:06;;;;;;;48.10;28.15;;;;;;;3.29;100.00;100103.34;5046395;28;20051;-71
2022/09/29 06:23:32;;;;;;;50.25;29.23;;;;;;;3.34;100.00;100100.75;5046440;28;20028;-70
2022/09/29 06:25:59;;;;;;;53.03;29.17;;;;;;;3.36;100.00;100091.28;5049294;28;20044;-71
2022/09/29 06:28:24;;;;;;;52.42;29.98;;;;;;;3.44;100.00;100094.69;5049215;28;20021;-71
2022/09/29 06:30:50;;;;;;;47.45;29.85;;;;;;;3.47;100.00;100098.09;5041273;28;20385;-71
2022/09/29 06:33:15;;;;;;;58.63;30.60;;;;;;;3.54;100.00;100100.63;5049968;28;20039;-71
2022/09/29 06:38:31;;;;;;;58.13;30.42;;;;;;;3.61;100.00;100108.31;5045989;28;20132;-71
2022/09/29 06:40:57;;;;;;;64.13;33.13;;;;;;;3.68;100.00;100102.22;5051255;28;20123;-70
2022/09/29 06:43:22;;;;;;;62.30;32.88;;;;;;;3.75;100.00;100113.34;5046719;28;20028;-71
2022/09/29 06:45:47;;;;;;;54.65;31.42;;;;;;;3.81;100.00;100109.88;5049903;28;20112;-71
2022/09/29 06:48:13;;;;;;;66.78;34.05;;;;;;;3.87;100.00;100110.69;5048424;28;20494;-70
2022/09/29 06:50:38;;;;;;;64.20;33.83;;;;;;;3.99;100.00;100118.34;5049405;28;20116;-71
2022/09/29 06:53:03;;;;;;;62.83;34.03;;;;;;;4.04;100.00;100114.88;5051558;28;20028;-71
2022/09/29 06:55:28;;;;;;;65.18;34.88;;;;;;;4.10;100.00;100114.81;5048992;28;20053;-71
2022/09/29 06:57:54;;;;;;;63.88;33.50;;;;;;;4.12;100.00;100113.06;5041830;28;20453;-71
2022/09/29 07:00:19;;;;;;;65.60;36.53;;;;;;;4.23;100.00;100119.84;5047589;28;20025;-71
2022/09/29 07:02:45;;;;;;;69.03;34.30;;;;;;;4.27;100.00;100112.06;5050979;28;20384;-71
2022/09/29 07:05:11;;;;;;;77.57;37.70;;;;;;;4.39;100.00;100127.44;5050801;28;20029;-71
2022/09/29 07:07:36;;;;;;;73.85;37.58;;;;;;;4.44;100.00;100129.09;5044120;28;20017;-71
2022/09/29 07:10:01;;;;;;;79.85;38.65;;;;;;;4.49;100.00;100128.22;5044275;28;20025;-70
2022/09/29 07:12:26;;;;;;;75.47;38.40;;;;;;;4.57;100.00;100129.81;5048947;28;20039;-70
2022/09/29 07:14:52;;;;;;;76.38;38.58;;;;;;;4.67;100.00;100136.59;5051489;28;20025;-70
2022/09/29 07:17:17;;;;;;;75.68;38.00;;;;;;;4.71;100.00;100134.88;5042429;28;20026;-70
2022/09/29 07:19:42;;;;;;;81.05;40.75;;;;;;;4.81;100.00;100138.22;5039455;28;20465;-70
2022/09/29 07:22:08;;;;;;;81.50;40.22;;;;;;;4.82;100.00;100143.34;5042021;28;20429;-71
2022/09/29 07:24:34;;;;;;;84.93;41.45;;;;;;;4.84;100.00;100141.63;5046671;28;20021;-72
2022/09/29 07:26:59;;;;;;;88.10;41.13;;;;;;;4.86;100.00;100144.16;5050092;28;20021;-72
2022/09/29 07:29:25;;;;;;;78.32;40.40;;;;;;;4.89;100.00;100144.13;5034013;28;20111;-73
2022/09/29 07:31:51;;;;;;;83.30;41.90;;;;;;;5.00;100.00;100150.00;5048622;28;20021;-73
2022/09/29 07:34:17;;;;;;;74.40;41.13;;;;;;;5.01;100.00;100156.06;5052432;28;20052;-72
2022/09/29 07:36:42;;;;;;;77.60;39.90;;;;;;;5.01;100.00;100153.47;5051578;28;20028;-72
2022/09/29 07:39:08;;;;;;;77.57;40.50;;;;;;;5.06;100.00;100157.69;5050836;28;20029;-72
2022/09/29 07:41:33;;;;;;;78.72;41.17;;;;;;;5.16;100.00;100158.44;5050342;28;20500;-72
2022/09/29 07:43:58;;;;;;;84.47;40.42;;;;;;;5.24;100.00;100164.38;5054738;28;20024;-72
2022/09/29 07:46:24;;;;;;;80.28;41.83;;;;;;;5.31;100.00;100158.25;5053126;28;20024;-73
2022/09/29 07:48:49;;;;;;;88.50;42.92;;;;;;;5.40;100.00;100163.31;5049976;28;20017;-72
2022/09/29 07:51:17;;;;;;;78.80;41.75;;;;;;;5.41;100.00;100156.41;5051730;28;20043;-72
2022/09/29 07:53:43;;;;;;;77.70;40.63;;;;;;;5.43;100.00;100166.72;5043727;28;20033;-72
2022/09/29 07:56:17;;;;;;;86.50;44.55;;;;;;;5.48;100.00;100170.09;5054682;28;20029;-72
2022/09/29 07:58:44;;;;;;;81.63;41.28;;;;;;;5.53;100.00;100176.09;5053992;28;20056;-72
2022/09/29 08:01:12;;;;;;;77.35;40.80;;;;;;;5.37;100.00;100162.50;5053249;28;20040;-72
2022/09/29 08:03:39;;;;;;;73.47;39.25;;;;;;;5.40;100.00;100178.81;5053751;28;20395;-72
2022/09/29 08:06:07;;;;;;;77.78;38.80;;;;;;;5.39;100.00;100181.41;5053907;28;20017;-72
2022/09/29 08:08:40;;;;;;;69.07;37.47;;;;;;;5.36;100.00;100187.50;5046007;28;20032;-72
2022/09/29 08:11:08;;;;;;;66.57;36.13;;;;;;;5.46;100.00;100184.78;5052223;28;20412;-72
2022/09/29 08:13:35;;;;;;;69.93;37.58;;;;;;;5.50;100.00;100187.31;5053564;28;20033;-72
2022/09/29 08:16:02;;;;;;;70.93;37.03;;;;;;;5.50;100.00;100183.88;5053112;28;20075;-72
2022/09/29 08:18:28;;;;;;;72.07;36.60;;;;;;;5.60;100.00;100196.66;5053310;28;20032;-72
2022/09/29 08:20:54;;;;;;;67.97;36.50;;;;;;;5.63;100.00;100191.44;5053823;28;20029;-72
2022/09/29 08:23:20;;;;;;;69.72;38.63;;;;;;;5.69;100.00;100194.81;5053162;28;20028;-72
2022/09/29 08:25:45;;;;;;;72.80;38.13;;;;;;;5.74;100.00;100205.97;5053967;28;20020;-72
2022/09/29 08:28:11;;;;;;;69.05;37.60;;;;;;;5.80;100.00;100198.97;5053012;28;20021;-73
2022/09/29 08:30:37;;;;;;;69.53;38.45;;;;;;;5.83;100.00;100204.09;5051503;28;20040;-73
2022/09/29 08:33:03;;;;;;;72.72;38.05;;;;;;;5.89;100.00;100210.06;5044143;28;20052;-72
2022/09/29 08:35:28;;;;;;;68.18;38.30;;;;;;;5.92;100.00;100197.94;5051518;28;20186;-72
2022/09/29 08:37:57;;;;;;;72.35;38.15;;;;;;;6.05;100.00;100211.59;5053811;28;20111;-73
2022/09/29 08:40:26;;;;;;;74.38;40.47;;;;;;;6.12;100.00;100214.94;5051902;28;20044;-72
2022/09/29 08:43:04;;;;;;;79.05;39.97;;;;;;;6.18;100.00;100213.13;5051937;28;20056;-72
2022/09/29 08:45:36;;;;;;;70.07;39.33;;;;;;;6.27;100.00;100212.94;5051134;28;20078;-72
2022/09/29 08:48:31;;;;;;;73.70;40.38;;;;;;;6.45;100.00;100219.56;5053430;28;20033;-72
2022/09/29 08:51:02;;;;;;;77.15;42.03;;;;;;;6.60;100.00;100207.25;5038901;28;20063;-72
2022/09/29 08:53:31;;;;;;;70.72;40.72;;;;;;;6.63;100.00;100223.56;5051788;28;20100;-72
2022/09/29 08:56:08;;;;;;;71.57;39.20;;;;;;;6.71;100.00;100226.06;5040250;28;20017;-72
2022/09/29 08:58:37;;;;;;;64.45;37.20;;;;;;;6.81;100.00;100227.59;5050725;28;20075;-73
2022/09/29 09:01:27;;;;;;;72.55;39.78;;;;;;;6.97;100.00;100226.44;5051751;28;20025;-73
2022/09/29 09:04:24;;;;;;;72.13;40.40;;;;;;;7.17;100.00;100213.09;5045978;28;20056;-73
2022/09/29 09:06:55;;;;;;;77.10;42.30;;;;;;;7.46;100.00;100224.63;5051555;28;20504;-72
2022/09/29 09:09:44;;;;;;;72.85;41.30;;;;;;;7.58;100.00;100224.34;5048253;28;20120;-73
2022/09/29 09:12:42;;;;;;;71.20;39.50;;;;;;;7.74;100.00;100230.94;5048857;28;20384;-71
2022/09/29 09:15:40;;;;;;;60.78;36.03;;;;;;;7.92;100.00;100232.28;5046554;28;20068;-73
2022/09/29 09:18:41;;;;;;;49.97;32.03;;;;;;;8.16;100.00;100232.63;5050464;28;20029;-73
2022/09/29 09:21:35;;;;;;;51.25;32.85;;;;;;;8.41;100.00;100233.78;5049011;28;20465;-73
2022/09/29 09:24:31;;;;;;;48.25;31.08;;;;;;;8.57;100.00;100236.00;5041853;28;20094;-72
2022/09/29 09:26:58;;;;;;;48.58;29.63;;;;;;;8.74;100.00;100233.81;5038584;28;20025;-73
2022/09/29 09:29:33;;;;;;;43.92;26.40;;;;;;;8.98;100.00;100237.53;5048052;28;20592;-73
2022/09/29 09:32:26;;;;;;;28.40;20.98;;;;;;;9.08;100.00;100233.78;5050744;28;20025;-73
2022/09/29 09:35:01;;;;;;;30.17;19.33;;;;;;;9.17;100.00;100227.50;5047695;28;20036;-73
2022/09/29 09:37:38;;;;;;;23.23;17.23;;;;;;;9.21;100.00;100229.09;5052055;28;20032;-73
2022/09/29 09:40:28;;;;;;;25.33;17.98;;;;;;;9.33;100.00;100244.38;5050708;28;20037;-74
2022/09/29 09:43:09;;;;;;;20.38;15.60;;;;;;;9.32;100.00;100239.22;5051655;28;20032;-73
2022/09/29 09:45:46;;;;;;;22.23;16.02;;;;;;;9.35;100.00;100240.00;5046040;28;20029;-72
2022/09/29 09:48:25;;;;;;;22.17;15.85;;;;;;;9.40;100.00;100244.22;5048758;28;20037;-73
2022/09/29 09:50:51;;;;;;;23.48;16.27;;;;;;;9.46;100.00;100239.69;5047081;28;20025;-72
2022/09/29 09:53:36;;;;;;;20.73;13.93;;;;;;;9.51;100.00;100235.19;5046268;28;20488;-72
2022/09/29 09:56:42;;;;;;;20.10;12.80;;;;;;;9.57;100.00;100244.56;5038586;28;20029;-71
2022/09/29 09:59:23;;;;;;;20.23;13.05;;;;;;;9.63;100.00;100246.16;5052294;28;20028;-72
2022/09/29 10:01:48;;;;;;;17.85;13.93;;;;;;;9.75;100.00;100244.03;5051751;28;20048;-71
2022/09/29 10:04:13;;;;;;;21.05;13.88;;;;;;;9.80;100.00;100243.91;5049452;28;20025;-72
2022/09/29 10:06:40;;;;;;;16.10;11.18;;;;;;;9.91;100.00;100247.06;5050630;28;20431;-72
2022/09/29 10:09:12;;;;;;;14.68;10.55;;;;;;;9.99;100.00;100245.06;5039696;28;20025;-72
2022/09/29 10:11:37;;;;;;;14.13;9.80;;;;;;;10.03;100.00;100236.22;5051587;28;20020;-72
2022/09/29 10:14:18;;;;;;;12.68;8.77;;;;;;;10.15;100.00;100244.59;5051181;28;20029;-72
2022/09/29 10:16:57;;;;;;;11.80;8.32;;;;;;;10.21;100.00;100242.63;5048495;28;20044;-72
2022/09/29 10:19:58;;;;;;;13.05;8.10;;;;;;;10.36;100.00;100243.94;5048122;28;20053;-72
2022/09/29 10:22:26;;;;;;;10.27;8.25;;;;;;;10.41;100.00;100242.03;5050828;28;20064;-72
2022/09/29 10:24:56;;;;;;;11.50;9.05;;;;;;;10.55;100.00;100247.63;5049389;28;20084;-72
2022/09/29 10:27:25;;;;;;;8.45;6.70;;;;;;;10.65;100.00;100244.72;5051322;28;20031;-73
2022/09/29 10:29:51;;;;;;;9.80;6.88;;;;;;;10.69;100.00;100242.00;5051111;28;20427;-72
2022/09/29 10:32:37;;;;;;;9.30;7.45;;;;;;;10.85;100.00;100251.88;5051592;28;20500;-72
2022/09/29 10:35:23;;;;;;;6.50;4.75;;;;;;;10.99;100.00;100254.91;5051089;28;20028;-72
2022/09/29 10:38:04;;;;;;;8.45;5.97;;;;;;;11.17;100.00;100253.38;5051199;28;20531;-72
2022/09/29 10:40:34;;;;;;;8.32;6.00;;;;;;;11.22;100.00;100252.31;5050548;28;20044;-72
2022/09/29 10:43:22;;;;;;;6.72;5.60;;;;;;;11.33;100.00;100248.47;5050249;28;20029;-72
2022/09/29 10:45:50;;;;;;;5.90;4.78;;;;;;;11.56;100.00;100252.88;5051579;28;20017;-72
2022/09/29 10:48:15;;;;;;;6.18;4.22;;;;;;;11.76;100.00;100246.91;5051673;28;20032;-72
2022/09/29 10:50:48;;;;;;;6.55;4.97;;;;;;;11.86;100.00;100253.50;5049985;28;20025;-72
2022/09/29 10:53:30;;;;;;;8.95;5.55;;;;;;;11.97;100.00;100250.47;5051505;28;20461;-72
2022/09/29 10:55:57;;;;;;;6.13;3.90;;;;;;;12.14;99.05;100264.59;5050764;28;20036;-74
2022/09/29 10:58:28;;;;;;;5.30;4.10;;;;;;;12.21;97.72;100253.91;5050499;28;20029;-73
2022/09/29 11:01:07;;;;;;;7.22;5.05;;;;;;;12.21;99.41;100262.59;5046849;28;20021;-73
2022/09/29 11:03:36;;;;;;;8.70;5.72;;;;;;;12.30;95.06;100261.38;5048582;28;20792;-72
2022/09/29 11:06:06;;;;;;;7.13;5.00;;;;;;;12.52;99.82;100261.34;5050388;28;20025;-72
2022/09/29 11:08:32;;;;;;;5.75;4.00;;;;;;;12.40;97.69;100250.50;5052417;28;20061;-72
2022/09/29 11:11:06;;;;;;;5.07;3.60;;;;;;;12.14;99.84;100261.13;5054613;28;20052;-72
2022/09/29 11:13:37;;;;;;;5.70;4.55;;;;;;;12.21;100.00;100264.34;5045404;28;20502;-72
2022/09/29 11:16:15;;;;;;;7.85;3.88;;;;;;;12.17;100.00;100267.09;5050700;28;20086;-73
2022/09/29 11:18:43;;;;;;;5.65;3.92;;;;;;;12.26;100.00;100270.25;5052635;28;20033;-73
2022/09/29 11:21:21;;;;;;;4.05;3.30;;;;;;;12.57;98.06;100273.34;5052323;28;20465;-73
2022/09/29 11:23:57;;;;;;;7.78;5.28;;;;;;;12.97;91.66;100268.22;5053383;28;20035;-73
2022/09/29 11:26:45;;;;;;;5.85;4.60;;;;;;;13.32;95.35;100267.56;5053706;28;20108;-73
2022/09/29 11:29:41;;;;;;;6.30;4.03;;;;;;;13.68;95.16;100268.63;5054995;28;20527;-74
2022/09/29 11:32:30;;;;;;;4.32;3.45;;;;;;;13.99;92.64;100258.41;5053733;28;20037;-73
2022/09/29 11:35:14;;;;;;;6.40;3.38;;;;;;;13.88;93.20;100267.72;5054668;28;20540;-73